createdAt,value
2019-03-28T00:01:07.865Z,87.42
2019-03-28T00:03:42.172Z,87.43
2019-03-28T00:06:16.534Z,87.60
2019-03-28T00:08:51.132Z,87.75
2019-03-28T00:11:25.509Z,87.66
2019-03-28T00:13:59.844Z,87.79
2019-03-28T00:16:34.130Z,88.03
2019-03-28T00:19:08.470Z,87.96
2019-03-28T00:21:42.755Z,87.99
2019-03-28T00:24:26.894Z,87.85
2019-03-28T00:27:01.185Z,87.96
2019-03-28T00:29:35.504Z,87.77
2019-03-28T00:32:09.796Z,87.62
2019-03-28T00:34:44.421Z,87.38
2019-03-28T00:37:19.046Z,87.28
2019-03-28T00:39:53.428Z,87.30
2019-03-28T00:42:27.727Z,87.46
2019-03-28T00:45:02.570Z,87.41
2019-03-28T00:47:36.862Z,87.47
2019-03-28T00:50:11.807Z,87.44
2019-03-28T00:52:46.253Z,87.38
2019-03-28T00:55:20.574Z,87.19
2019-03-28T00:57:56.000Z,87.53
2019-03-28T01:00:30.473Z,87.84
2019-03-28T01:03:04.852Z,87.92
2019-03-28T01:05:39.216Z,88.20
2019-03-28T01:08:13.608Z,88.07
2019-03-28T01:10:48.009Z,88.30
2019-03-28T01:13:22.301Z,88.53
2019-03-28T01:15:56.868Z,88.66
2019-03-28T01:18:31.159Z,88.65
2019-03-28T01:21:06.157Z,88.73
2019-03-28T01:23:40.717Z,88.99
2019-03-28T01:26:15.037Z,89.00
2019-03-28T01:28:49.330Z,89.15
2019-03-28T01:31:23.652Z,89.19
2019-03-28T01:33:57.947Z,89.19
2019-03-28T01:36:32.343Z,89.03
2019-03-28T01:39:07.289Z,88.97
2019-03-28T01:41:41.604Z,88.97
2019-03-28T01:44:15.897Z,88.97
2019-03-28T01:46:50.471Z,88.76
2019-03-28T01:49:25.102Z,88.80
2019-03-28T01:51:59.443Z,88.93
2019-03-28T01:54:33.727Z,89.08
2019-03-28T01:57:11.196Z,89.03
2019-03-28T01:59:44.607Z,88.89
2019-03-28T02:02:18.923Z,88.75
2019-03-28T02:04:53.293Z,88.94
2019-03-28T02:07:27.604Z,88.81
2019-03-28T02:10:01.914Z,88.71
2019-03-28T02:12:36.498Z,88.89
2019-03-28T02:15:10.944Z,88.86
2019-03-28T02:17:45.562Z,88.75
2019-03-28T02:20:19.931Z,89.00
2019-03-28T02:22:54.290Z,89.15
2019-03-28T02:25:28.527Z,89.08
2019-03-28T02:28:02.877Z,89.07
2019-03-28T02:30:37.164Z,89.19
2019-03-28T02:33:11.500Z,89.42
2019-03-28T02:35:45.863Z,89.36
2019-03-28T02:38:20.224Z,89.45
2019-03-28T02:40:54.596Z,89.18
2019-03-28T02:43:29.027Z,89.03
2019-03-28T02:46:03.311Z,89.09
2019-03-28T02:48:37.654Z,89.04
2019-03-28T02:51:11.943Z,88.95
2019-03-28T02:53:46.257Z,88.81
2019-03-28T02:56:20.544Z,88.54
2019-03-28T02:58:54.903Z,88.33
2019-03-28T03:01:31.076Z,88.17
2019-03-28T03:04:05.473Z,88.20
2019-03-28T03:06:39.758Z,88.03
2019-03-28T03:09:14.085Z,87.89
2019-03-28T03:11:48.376Z,87.74
2019-03-28T03:14:22.742Z,87.80
2019-03-28T03:16:57.408Z,87.59
2019-03-28T03:19:31.751Z,87.80
2019-03-28T03:22:06.041Z,87.82
2019-03-28T03:24:40.620Z,87.77
2019-03-28T03:27:14.910Z,87.74
2019-03-28T03:29:49.251Z,88.03
2019-03-28T03:32:23.547Z,88.32
2019-03-28T03:34:57.959Z,88.43
2019-03-28T03:37:32.252Z,88.28
2019-03-28T03:40:07.795Z,88.09
2019-03-28T03:42:42.770Z,87.85
2019-03-28T03:45:17.133Z,87.83
2019-03-28T03:47:51.750Z,87.69
2019-03-28T03:50:28.372Z,87.55
2019-03-28T03:53:02.664Z,87.52
2019-03-28T03:55:37.021Z,87.53
2019-03-28T03:58:15.945Z,87.75
2019-03-28T04:00:47.341Z,87.78
2019-03-28T04:03:21.631Z,87.70
2019-03-28T04:05:56.237Z,87.66
2019-03-28T04:08:30.517Z,87.66
2019-03-28T04:11:04.970Z,87.73
2019-03-28T04:13:39.251Z,87.80
2019-03-28T04:16:13.566Z,87.69
2019-03-28T04:18:48.154Z,87.71
2019-03-28T04:21:22.492Z,87.59
2019-03-28T04:23:56.791Z,87.58
2019-03-28T04:26:31.723Z,87.55
2019-03-28T04:29:06.087Z,87.66
2019-03-28T04:31:40.764Z,87.72
2019-03-28T04:34:15.060Z,87.75
2019-03-28T04:36:49.559Z,87.83
2019-03-28T04:39:23.845Z,88.01
2019-03-28T04:41:58.176Z,88.23
2019-03-28T04:44:32.753Z,88.18
2019-03-28T04:47:07.104Z,88.11
2019-03-28T04:49:41.403Z,88.05
2019-03-28T04:52:15.737Z,88.14
2019-03-28T04:54:50.038Z,88.12
2019-03-28T04:57:24.714Z,88.15
2019-03-28T04:59:59.609Z,88.05
2019-03-28T05:02:33.949Z,88.00
2019-03-28T05:05:08.989Z,88.28
2019-03-28T05:07:43.308Z,88.17
2019-03-28T05:10:17.686Z,88.23
2019-03-28T05:12:52.010Z,88.18
2019-03-28T05:15:26.309Z,88.33
2019-03-28T05:18:01.570Z,88.50
2019-03-28T05:20:35.874Z,88.58
2019-03-28T05:23:10.202Z,88.45
2019-03-28T05:25:44.488Z,88.27
2019-03-28T05:28:19.350Z,88.24
2019-03-28T05:30:53.643Z,88.05
2019-03-28T05:33:27.964Z,87.86
2019-03-28T05:36:04.462Z,87.56
2019-03-28T05:38:39.306Z,87.35
2019-03-28T05:41:13.744Z,87.23
2019-03-28T05:43:48.096Z,87.24
2019-03-28T05:46:22.390Z,87.20
2019-03-28T05:48:57.025Z,87.07
2019-03-28T05:51:31.319Z,86.95
2019-03-28T05:54:05.650Z,87.00
2019-03-28T05:56:39.945Z,86.98
2019-03-28T05:59:14.270Z,87.10
2019-03-28T06:01:48.561Z,86.81
2019-03-28T06:04:23.125Z,86.64
2019-03-28T06:06:58.474Z,86.76
2019-03-28T06:09:32.811Z,86.71
2019-03-28T06:12:07.179Z,86.67
2019-03-28T06:14:42.041Z,86.59
2019-03-28T06:17:16.322Z,86.55
2019-03-28T06:19:50.984Z,86.49
2019-03-28T06:22:25.277Z,86.31
2019-03-28T06:24:59.614Z,86.23
2019-03-28T06:27:34.182Z,86.03
2019-03-28T06:30:09.880Z,86.13
2019-03-28T06:32:44.172Z,85.95
2019-03-28T06:35:21.740Z,86.04
2019-03-28T06:37:54.913Z,86.12
2019-03-28T06:40:29.296Z,85.71
2019-03-28T06:43:03.674Z,86.46
2019-03-28T06:45:38.254Z,86.50
2019-03-28T06:48:12.534Z,86.15
2019-03-28T06:50:47.197Z,85.98
2019-03-28T06:53:21.488Z,85.39
2019-03-28T06:55:56.083Z,84.97
2019-03-28T06:58:30.383Z,85.36
2019-03-28T07:01:04.737Z,85.55
2019-03-28T07:03:39.104Z,85.80
2019-03-28T07:06:14.512Z,85.55
2019-03-28T07:08:48.941Z,85.41
2019-03-28T07:11:23.293Z,85.30
2019-03-28T07:13:57.617Z,85.00
2019-03-28T07:16:31.964Z,84.93
2019-03-28T07:19:06.266Z,84.57
2019-03-28T07:21:40.621Z,84.50
2019-03-28T07:24:14.993Z,83.89
2019-03-28T07:26:49.358Z,84.25
2019-03-28T07:29:23.658Z,84.03
2019-03-28T07:31:57.998Z,83.73
2019-03-28T07:34:32.538Z,84.17
2019-03-28T07:37:06.942Z,83.68
2019-03-28T07:39:41.540Z,83.44
2019-03-28T07:42:15.867Z,83.41
2019-03-28T07:44:50.176Z,83.04
2019-03-28T07:47:24.565Z,82.67
2019-03-28T07:49:58.853Z,82.60
2019-03-28T07:52:33.200Z,82.27
2019-03-28T07:55:08.631Z,81.38
2019-03-28T07:57:42.999Z,81.85
2019-03-28T08:00:17.903Z,81.83
2019-03-28T08:02:52.259Z,81.56
2019-03-28T08:05:26.558Z,81.21
2019-03-28T08:08:01.122Z,80.81
2019-03-28T08:10:35.663Z,80.56
2019-03-28T08:13:10.027Z,80.54
2019-03-28T08:15:44.771Z,79.49
2019-03-28T08:18:19.571Z,80.11
2019-03-28T08:20:54.107Z,79.79
2019-03-28T08:23:28.539Z,79.66
2019-03-28T08:26:02.891Z,79.29
2019-03-28T08:28:37.223Z,79.27
2019-03-28T08:31:11.878Z,79.28
2019-03-28T08:33:46.855Z,78.96
2019-03-28T08:36:21.213Z,78.67
2019-03-28T08:38:56.903Z,78.19
2019-03-28T08:41:31.557Z,78.07
2019-03-28T08:44:07.412Z,78.07
2019-03-28T08:46:41.807Z,77.72
2019-03-28T08:49:16.165Z,78.13
2019-03-28T08:51:50.777Z,78.07
2019-03-28T08:54:25.103Z,78.14
2019-03-28T08:56:59.776Z,77.99
2019-03-28T08:59:34.106Z,78.04
2019-03-28T09:02:08.485Z,77.75
2019-03-28T09:04:42.828Z,76.89
2019-03-28T09:07:17.622Z,76.95
2019-03-28T09:09:52.342Z,77.29
2019-03-28T09:12:27.491Z,76.96
2019-03-28T09:15:01.959Z,77.30
2019-03-28T09:17:36.674Z,77.24
2019-03-28T09:20:11.304Z,77.14
2019-03-28T09:22:46.232Z,76.73
2019-03-28T09:25:20.608Z,76.49
2019-03-28T09:27:54.924Z,76.52
2019-03-28T09:30:47.907Z,76.21
2019-03-28T09:33:13.847Z,75.38
2019-03-28T09:35:48.563Z,74.98
2019-03-28T09:38:22.817Z,74.44
2019-03-28T09:40:57.189Z,73.97
2019-03-28T09:43:31.475Z,73.03
2019-03-28T09:46:05.917Z,72.20
2019-03-28T09:48:40.455Z,73.25
2019-03-28T09:51:14.945Z,72.36
2019-03-28T09:53:49.538Z,71.26
2019-03-28T09:56:23.884Z,71.33
2019-03-28T09:59:00.325Z,70.54
2019-03-28T10:01:34.600Z,70.10
2019-03-28T10:04:08.960Z,69.05
2019-03-28T10:06:43.760Z,68.44
2019-03-28T10:09:18.066Z,66.84
2019-03-28T10:11:52.467Z,66.20
2019-03-28T10:14:27.751Z,66.32
2019-03-28T10:17:02.471Z,66.94
2019-03-28T10:19:36.767Z,67.32
2019-03-28T10:22:11.091Z,66.38
2019-03-28T10:24:45.728Z,66.25
2019-03-28T10:27:20.094Z,65.78
2019-03-28T10:29:54.476Z,65.98
2019-03-28T10:32:28.827Z,65.22
2019-03-28T10:35:06.724Z,64.62
2019-03-28T10:37:39.748Z,64.21
2019-03-28T10:40:14.326Z,63.28
2019-03-28T10:42:48.655Z,61.86
2019-03-28T10:45:22.959Z,60.34
2019-03-28T10:47:57.310Z,57.86
2019-03-28T10:50:40.818Z,56.38
2019-03-28T10:53:07.754Z,58.52
2019-03-28T10:55:42.654Z,59.04
2019-03-28T10:58:19.505Z,58.89
2019-03-28T11:00:54.712Z,60.25
2019-03-28T11:03:30.327Z,62.49
2019-03-28T11:06:07.538Z,61.64
2019-03-28T11:08:42.668Z,61.16
2019-03-28T11:11:17.592Z,60.90
2019-03-28T11:13:51.943Z,60.42
2019-03-28T11:16:26.663Z,60.17
2019-03-28T11:19:00.999Z,61.66
2019-03-28T11:21:35.309Z,61.40
2019-03-28T11:24:09.765Z,62.60
2019-03-28T11:26:44.060Z,64.06
2019-03-28T11:29:18.410Z,62.91
2019-03-28T11:31:53.029Z,60.66
2019-03-28T11:34:27.751Z,59.84
2019-03-28T11:37:02.045Z,61.35
2019-03-28T11:39:36.672Z,58.28
2019-03-28T11:42:11.241Z,59.13
2019-03-28T11:44:45.899Z,58.26
2019-03-28T11:47:22.194Z,57.79
2019-03-28T11:49:56.809Z,59.84
2019-03-28T11:52:31.283Z,60.36
2019-03-28T11:55:06.435Z,58.25
2019-03-28T11:57:40.889Z,58.16
2019-03-28T12:00:16.931Z,57.54
2019-03-28T12:02:51.397Z,56.86
2019-03-28T12:05:25.795Z,56.65
2019-03-28T12:08:00.212Z,56.45
2019-03-28T12:10:35.057Z,55.72
2019-03-28T12:13:09.686Z,57.24
2019-03-28T12:15:44.164Z,55.96
2019-03-28T12:18:18.659Z,53.45
2019-03-28T12:20:53.094Z,53.59
2019-03-28T12:23:27.467Z,51.94
2019-03-28T12:26:01.864Z,51.93
2019-03-28T12:28:36.217Z,52.78
2019-03-28T12:31:10.837Z,52.64
2019-03-28T12:33:45.276Z,53.13
2019-03-28T12:36:19.695Z,55.13
2019-03-28T12:38:54.722Z,55.21
2019-03-28T12:41:29.263Z,57.11
2019-03-28T12:44:04.021Z,57.19
2019-03-28T12:46:38.404Z,56.60
2019-03-28T12:49:12.775Z,54.39
2019-03-28T12:51:47.230Z,53.74
2019-03-28T12:54:21.576Z,52.86
2019-03-28T12:56:58.140Z,53.66
2019-03-28T12:59:33.765Z,52.95
2019-03-28T13:02:08.288Z,53.50
2019-03-28T13:04:42.651Z,50.77
2019-03-28T13:07:17.133Z,51.30
2019-03-28T13:09:51.607Z,52.21
2019-03-28T13:12:26.020Z,49.84
2019-03-28T13:15:00.467Z,49.94
2019-03-28T13:17:34.947Z,50.69
2019-03-28T13:20:09.923Z,52.16
2019-03-28T13:22:44.539Z,51.89
2019-03-28T13:25:18.911Z,50.55
2019-03-28T13:27:53.285Z,51.86
2019-03-28T13:30:27.649Z,50.39
2019-03-28T13:33:02.002Z,51.86
2019-03-28T13:35:36.276Z,51.66
2019-03-28T13:38:10.582Z,52.66
2019-03-28T13:40:44.865Z,52.49
2019-03-28T13:43:19.416Z,54.70
2019-03-28T13:45:53.729Z,55.05
2019-03-28T13:48:28.096Z,55.16
2019-03-28T13:51:02.422Z,55.87
2019-03-28T13:53:39.654Z,56.43
2019-03-28T13:56:13.199Z,55.23
2019-03-28T13:58:47.765Z,56.88
2019-03-28T14:01:22.644Z,55.38
2019-03-28T14:03:57.214Z,54.99
2019-03-28T14:06:31.535Z,55.26
2019-03-28T14:09:07.649Z,54.68
2019-03-28T14:11:41.967Z,56.42
2019-03-28T14:14:16.746Z,56.02
2019-03-28T14:16:53.192Z,55.87
2019-03-28T14:19:27.262Z,56.39
2019-03-28T14:22:01.832Z,55.17
2019-03-28T14:24:36.171Z,53.95
2019-03-28T14:27:10.477Z,54.05
2019-03-28T14:29:44.866Z,54.42
2019-03-28T14:32:19.155Z,55.12
2019-03-28T14:34:53.595Z,54.16
2019-03-28T14:37:28.345Z,54.62
2019-03-28T14:40:03.057Z,55.21
2019-03-28T14:42:37.402Z,55.30
2019-03-28T14:45:12.393Z,53.54
2019-03-28T14:47:46.670Z,54.15
2019-03-28T14:50:34.575Z,53.61
2019-03-28T14:53:09.111Z,54.32
2019-03-28T14:55:43.903Z,55.02
2019-03-28T14:58:21.722Z,53.65
2019-03-28T15:00:54.818Z,51.69
2019-03-28T15:03:29.334Z,51.52
2019-03-28T15:06:03.772Z,50.89
2019-03-28T15:08:38.301Z,49.30
2019-03-28T15:11:12.651Z,49.71
2019-03-28T15:13:46.964Z,46.70
2019-03-28T15:16:21.245Z,43.65
2019-03-28T15:18:56.040Z,41.76
2019-03-28T15:21:30.306Z,41.31
2019-03-28T15:24:05.699Z,42.49
2019-03-28T15:26:40.081Z,43.85
2019-03-28T15:29:14.356Z,46.36
2019-03-28T15:31:48.722Z,48.37
2019-03-28T15:34:23.027Z,50.01
2019-03-28T15:36:57.358Z,50.54
2019-03-28T15:39:31.902Z,51.89
2019-03-28T15:42:06.316Z,53.58
2019-03-28T15:44:40.545Z,53.68
2019-03-28T15:47:14.823Z,54.49
2019-03-28T15:49:49.363Z,54.40
2019-03-28T15:52:23.627Z,57.09
2019-03-28T15:54:57.872Z,58.23
2019-03-28T15:57:32.142Z,58.46
2019-03-28T16:00:07.513Z,58.80
2019-03-28T16:02:41.850Z,58.91
2019-03-28T16:05:16.350Z,59.47
2019-03-28T16:07:50.922Z,59.63
2019-03-28T16:10:25.157Z,60.75
2019-03-28T16:12:59.518Z,59.91
2019-03-28T16:15:34.116Z,59.85
2019-03-28T16:18:08.691Z,60.90
2019-03-28T16:20:42.921Z,60.56
2019-03-28T16:23:17.459Z,61.65
2019-03-28T16:25:51.755Z,61.47
2019-03-28T16:28:28.121Z,61.16
2019-03-28T16:31:02.048Z,61.28
2019-03-28T16:33:36.334Z,61.44
2019-03-28T16:36:10.551Z,62.02
2019-03-28T16:38:45.728Z,61.66
2019-03-28T16:41:20.219Z,62.92
2019-03-28T16:43:54.470Z,62.24
2019-03-28T16:46:28.700Z,62.92
2019-03-28T16:49:03.106Z,62.62
2019-03-28T16:51:37.414Z,63.78
2019-03-28T16:54:11.670Z,64.22
2019-03-28T16:56:45.909Z,64.10
2019-03-28T16:59:20.285Z,64.12
2019-03-28T17:01:54.770Z,64.53
2019-03-28T17:04:29.050Z,64.51
2019-03-28T17:07:04.058Z,65.20
2019-03-28T17:09:39.802Z,65.92
2019-03-28T17:12:14.031Z,66.06
2019-03-28T17:14:48.639Z,66.01
2019-03-28T17:17:22.939Z,65.90
2019-03-28T17:19:57.261Z,65.50
2019-03-28T17:22:31.492Z,65.24
2019-03-28T17:25:06.421Z,65.85
2019-03-28T17:27:41.000Z,66.09
2019-03-28T17:30:15.772Z,65.84
2019-03-28T17:32:50.067Z,65.08
2019-03-28T17:35:24.327Z,65.60
2019-03-28T17:37:58.560Z,65.76
2019-03-28T17:40:32.834Z,65.91
2019-03-28T17:43:07.322Z,66.52
2019-03-28T17:45:41.699Z,66.81
2019-03-28T17:48:16.028Z,66.89
2019-03-28T17:50:50.315Z,67.44
2019-03-28T17:53:24.935Z,67.23
2019-03-28T17:55:59.577Z,67.24
2019-03-28T17:58:33.812Z,67.63
2019-03-28T18:01:08.319Z,67.91
2019-03-28T18:03:42.569Z,67.75
2019-03-28T18:06:16.933Z,67.64
2019-03-28T18:08:51.181Z,68.08
2019-03-28T18:11:25.454Z,68.32
2019-03-28T18:13:59.690Z,68.14
2019-03-28T18:16:34.259Z,68.38
2019-03-28T18:19:08.506Z,69.50
2019-03-28T18:21:42.821Z,68.84
2019-03-28T18:24:17.072Z,69.00
2019-03-28T18:26:51.883Z,68.96
2019-03-28T18:29:27.699Z,68.90
2019-03-28T18:32:02.111Z,68.95
2019-03-28T18:34:36.363Z,69.05
2019-03-28T18:37:10.966Z,69.08
2019-03-28T18:39:45.198Z,69.65
2019-03-28T18:42:19.476Z,69.91
2019-03-28T18:44:53.999Z,70.00
2019-03-28T18:47:28.281Z,69.85
2019-03-28T18:50:03.779Z,69.54
2019-03-28T18:52:38.369Z,70.10
2019-03-28T18:55:12.910Z,69.96
2019-03-28T18:57:47.508Z,69.97
2019-03-28T19:00:22.043Z,69.79
2019-03-28T19:02:56.400Z,69.64
2019-03-28T19:05:30.959Z,70.09
2019-03-28T19:08:05.413Z,70.16
2019-03-28T19:10:39.913Z,70.12
2019-03-28T19:13:14.226Z,70.77
2019-03-28T19:15:49.227Z,71.04
2019-03-28T19:18:24.234Z,71.22
2019-03-28T19:20:58.470Z,71.11
2019-03-28T19:23:32.982Z,71.31
2019-03-28T19:26:10.592Z,71.80
2019-03-28T19:28:43.393Z,71.78
2019-03-28T19:31:17.981Z,71.38
2019-03-28T19:33:52.817Z,71.94
2019-03-28T19:36:27.807Z,72.41
2019-03-28T19:39:02.267Z,72.57
2019-03-28T19:41:36.507Z,72.13
2019-03-28T19:44:10.895Z,72.10
2019-03-28T19:46:45.142Z,72.32
2019-03-28T19:49:19.537Z,72.42
2019-03-28T19:51:53.790Z,72.55
2019-03-28T19:54:28.077Z,72.33
2019-03-28T19:57:02.323Z,72.37
2019-03-28T19:59:36.634Z,72.51
2019-03-28T20:02:14.121Z,72.89
2019-03-28T20:04:47.068Z,73.35
2019-03-28T20:07:23.100Z,73.32
2019-03-28T20:09:57.603Z,73.52
2019-03-28T20:12:32.041Z,73.38
2019-03-28T20:15:08.095Z,73.79
2019-03-28T20:17:43.230Z,73.75
2019-03-28T20:20:18.302Z,73.14
2019-03-28T20:22:52.612Z,73.04
2019-03-28T20:25:27.070Z,73.68
2019-03-28T20:28:01.304Z,74.30
2019-03-28T20:30:35.939Z,74.16
2019-03-28T20:33:11.840Z,74.16
2019-03-28T20:36:01.917Z,74.03
2019-03-28T20:38:22.359Z,73.99
2019-03-28T20:40:58.441Z,74.30
2019-03-28T20:43:32.980Z,74.42
2019-03-28T20:46:07.271Z,74.39
2019-03-28T20:48:42.168Z,73.82
2019-03-28T20:51:17.534Z,73.91
2019-03-28T20:53:51.767Z,74.00
2019-03-28T20:56:26.230Z,73.67
2019-03-28T20:59:00.481Z,73.20
2019-03-28T21:01:34.774Z,72.96
2019-03-28T21:04:09.014Z,73.17
2019-03-28T21:06:44.470Z,74.13
2019-03-28T21:09:18.717Z,74.97
2019-03-28T21:11:53.012Z,75.26
2019-03-28T21:14:28.029Z,74.87
2019-03-28T21:17:02.252Z,75.02
2019-03-28T21:19:36.493Z,74.80
2019-03-28T21:22:10.779Z,75.10
2019-03-28T21:24:45.026Z,74.87
2019-03-28T21:27:20.797Z,75.05
2019-03-28T21:29:55.195Z,74.81
2019-03-28T21:32:29.536Z,75.24
2019-03-28T21:35:04.790Z,75.73
2019-03-28T21:37:39.055Z,76.24
2019-03-28T21:40:13.995Z,76.73
2019-03-28T21:42:48.638Z,77.18
2019-03-28T21:45:23.054Z,77.29
2019-03-28T21:47:57.341Z,77.44
2019-03-28T21:50:31.587Z,77.65
2019-03-28T21:53:06.929Z,77.72
2019-03-28T21:55:54.518Z,77.62
2019-03-28T21:58:17.530Z,77.77
2019-03-28T22:00:51.773Z,78.04
2019-03-28T22:03:26.055Z,77.96
2019-03-28T22:06:00.894Z,77.88
2019-03-28T22:08:35.167Z,78.06
2019-03-28T22:11:09.413Z,78.34
2019-03-28T22:13:43.721Z,78.50
2019-03-28T22:16:17.934Z,78.27
2019-03-28T22:18:52.454Z,78.20
2019-03-28T22:21:27.486Z,78.21
2019-03-28T22:24:02.002Z,78.39
2019-03-28T22:26:36.241Z,78.35
2019-03-28T22:29:10.788Z,78.60
2019-03-28T22:31:45.025Z,78.81
2019-03-28T22:34:19.318Z,79.12
2019-03-28T22:36:57.537Z,78.92
2019-03-28T22:39:29.926Z,79.14
2019-03-28T22:42:04.242Z,79.83
2019-03-28T22:44:39.187Z,79.83
2019-03-28T22:47:13.420Z,79.73
2019-03-28T22:49:47.695Z,79.87
2019-03-28T22:52:21.934Z,80.04
2019-03-28T22:54:56.205Z,80.10
2019-03-28T22:57:30.448Z,80.03
2019-03-28T23:00:05.714Z,79.96
2019-03-28T23:02:40.894Z,79.66
2019-03-28T23:05:15.757Z,79.59
2019-03-28T23:07:50.001Z,79.98
2019-03-28T23:10:24.366Z,79.98
2019-03-28T23:12:58.588Z,79.93
2019-03-28T23:15:32.938Z,80.22
2019-03-28T23:18:07.197Z,80.74
2019-03-28T23:20:41.473Z,81.21
2019-03-28T23:23:15.704Z,80.95
2019-03-28T23:25:50.019Z,81.05
2019-03-28T23:28:24.249Z,81.23
2019-03-28T23:30:58.900Z,81.24
2019-03-28T23:33:33.540Z,80.80
2019-03-28T23:36:07.801Z,81.15
2019-03-28T23:38:42.301Z,81.19
2019-03-28T23:41:16.568Z,80.89
2019-03-28T23:43:50.805Z,80.92
2019-03-28T23:46:25.125Z,80.96
2019-03-28T23:48:59.644Z,80.91
2019-03-28T23:51:33.953Z,81.33
2019-03-28T23:54:08.369Z,81.28
2019-03-28T23:56:42.630Z,81.17
2019-03-28T23:59:16.863Z,80.84
